createdAt,value
2022-12-09T00:01:14.136Z,-3.00
2022-12-09T00:03:41.947Z,-2.94
2022-12-09T00:06:11.892Z,-2.92
2022-12-09T00:08:38.718Z,-2.89
2022-12-09T00:11:06.646Z,-3.10
2022-12-09T00:13:34.033Z,-3.09
2022-12-09T00:16:05.200Z,-3.01
2022-12-09T00:18:32.879Z,-3.11
2022-12-09T00:20:59.741Z,-3.22
2022-12-09T00:23:26.641Z,-3.23
2022-12-09T00:25:57.333Z,-3.33
2022-12-09T00:28:24.027Z,-3.30
2022-12-09T00:30:50.825Z,-3.19
2022-12-09T00:33:17.840Z,-3.20
2022-12-09T00:35:44.549Z,-3.16
2022-12-09T00:38:11.181Z,-3.13
2022-12-09T00:40:37.973Z,-3.12
2022-12-09T00:43:04.694Z,-3.09
2022-12-09T00:45:31.334Z,-3.10
2022-12-09T00:47:58.019Z,-3.05
2022-12-09T00:50:24.662Z,-3.06
2022-12-09T00:52:51.289Z,-3.00
2022-12-09T00:55:18.147Z,-3.00
2022-12-09T00:57:45.089Z,-2.98
2022-12-09T01:00:12.450Z,-2.97
2022-12-09T01:02:39.374Z,-3.17
2022-12-09T01:05:06.629Z,-3.35
2022-12-09T01:07:33.527Z,-3.27
2022-12-09T01:10:00.479Z,-3.17
2022-12-09T01:12:27.256Z,-3.12
2022-12-09T01:14:54.096Z,-3.16
2022-12-09T01:17:21.126Z,-3.12
2022-12-09T01:19:47.878Z,-3.22
2022-12-09T01:22:14.538Z,-3.28
2022-12-09T01:24:41.198Z,-3.18
2022-12-09T01:27:08.209Z,-3.16
2022-12-09T01:29:35.605Z,-3.12
2022-12-09T01:32:02.752Z,-3.16
2022-12-09T01:34:29.502Z,-3.25
2022-12-09T01:36:56.290Z,-3.30
2022-12-09T01:39:23.299Z,-3.31
2022-12-09T01:41:51.461Z,-3.48
2022-12-09T01:44:24.260Z,-3.60
2022-12-09T01:46:55.870Z,-3.55
2022-12-09T01:49:27.716Z,-3.40
2022-12-09T01:52:03.933Z,-3.33
2022-12-09T01:54:32.049Z,-3.31
2022-12-09T01:56:59.149Z,-3.24
2022-12-09T01:59:27.734Z,-3.23
2022-12-09T02:01:59.268Z,-3.17
2022-12-09T02:04:29.007Z,-3.30
2022-12-09T02:06:58.531Z,-3.26
2022-12-09T02:09:25.624Z,-3.21
2022-12-09T02:12:03.520Z,-3.17
2022-12-09T02:14:54.901Z,-3.18
2022-12-09T02:17:32.451Z,-3.11
2022-12-09T02:20:13.170Z,-3.11
2022-12-09T02:22:58.327Z,-3.27
2022-12-09T02:25:33.790Z,-3.13
2022-12-09T02:28:12.927Z,-3.08
2022-12-09T02:31:02.992Z,-3.16
2022-12-09T02:33:45.651Z,-3.31
2022-12-09T02:36:16.822Z,-3.16
2022-12-09T02:38:44.416Z,-3.17
2022-12-09T02:41:25.733Z,-3.23
2022-12-09T02:43:59.110Z,-3.12
2022-12-09T02:46:27.895Z,-3.21
2022-12-09T02:48:57.220Z,-3.16
2022-12-09T02:51:31.661Z,-3.09
2022-12-09T02:54:04.666Z,-3.13
2022-12-09T02:56:33.069Z,-3.16
2022-12-09T02:58:59.744Z,-3.04
2022-12-09T03:01:49.530Z,-3.00
2022-12-09T03:04:26.321Z,-3.02
2022-12-09T03:06:53.812Z,-3.01
2022-12-09T03:09:27.412Z,-2.92
2022-12-09T03:11:56.591Z,-2.83
2022-12-09T03:14:30.161Z,-2.87
2022-12-09T03:17:08.104Z,-2.86
2022-12-09T03:19:42.485Z,-2.76
2022-12-09T03:22:14.303Z,-2.75
2022-12-09T03:24:48.604Z,-2.79
2022-12-09T03:27:20.860Z,-2.76
2022-12-09T03:29:49.859Z,-2.77
2022-12-09T03:32:19.823Z,-2.71
2022-12-09T03:34:50.365Z,-2.67
2022-12-09T03:37:20.176Z,-2.59
2022-12-09T03:39:49.560Z,-2.53
2022-12-09T03:42:21.385Z,-2.48
2022-12-09T03:45:06.860Z,-2.48
2022-12-09T03:47:33.734Z,-2.41
2022-12-09T03:50:00.844Z,-2.45
2022-12-09T03:52:37.388Z,-2.40
2022-12-09T03:55:23.938Z,-2.34
2022-12-09T03:57:55.174Z,-2.31
2022-12-09T04:00:21.944Z,-2.32
2022-12-09T04:02:49.020Z,-2.29
2022-12-09T04:05:16.210Z,-2.26
2022-12-09T04:07:43.433Z,-2.24
2022-12-09T04:10:11.352Z,-2.25
2022-12-09T04:12:40.266Z,-2.21
2022-12-09T04:15:07.564Z,-2.19
2022-12-09T04:17:34.324Z,-2.14
2022-12-09T04:20:01.567Z,-2.10
2022-12-09T04:22:30.044Z,-2.07
2022-12-09T04:24:56.798Z,-2.03
2022-12-09T04:27:23.453Z,-2.01
2022-12-09T04:29:50.190Z,-1.98
2022-12-09T04:32:16.903Z,-1.87
2022-12-09T04:34:43.589Z,-1.89
2022-12-09T04:37:10.598Z,-1.91
2022-12-09T04:39:37.420Z,-1.92
2022-12-09T04:42:04.131Z,-1.89
2022-12-09T04:44:31.026Z,-1.83
2022-12-09T04:46:57.803Z,-1.76
2022-12-09T04:49:25.014Z,-1.78
2022-12-09T04:51:51.677Z,-1.79
2022-12-09T04:54:18.546Z,-1.76
2022-12-09T04:56:45.587Z,-1.78
2022-12-09T04:59:12.248Z,-1.76
2022-12-09T05:01:39.270Z,-1.73
2022-12-09T05:04:06.462Z,-1.76
2022-12-09T05:06:33.731Z,-1.73
2022-12-09T05:09:01.303Z,-1.71
2022-12-09T05:11:28.275Z,-1.66
2022-12-09T05:13:55.392Z,-1.64
2022-12-09T05:16:22.764Z,-1.64
2022-12-09T05:18:50.167Z,-1.60
2022-12-09T05:21:20.342Z,-1.58
2022-12-09T05:23:48.700Z,-1.56
2022-12-09T05:26:17.942Z,-1.55
2022-12-09T05:28:45.594Z,-1.55
2022-12-09T05:31:15.615Z,-1.51
2022-12-09T05:33:44.102Z,-1.50
2022-12-09T05:36:12.483Z,-1.47
2022-12-09T05:38:39.924Z,-1.47
2022-12-09T05:41:07.285Z,-1.44
2022-12-09T05:43:35.100Z,-1.42
2022-12-09T05:46:02.902Z,-1.42
2022-12-09T05:48:30.316Z,-1.39
2022-12-09T05:51:00.629Z,-1.39
2022-12-09T05:53:27.797Z,-1.39
2022-12-09T05:55:54.946Z,-1.44
2022-12-09T05:58:22.270Z,-1.45
2022-12-09T06:00:49.663Z,-1.47
2022-12-09T06:03:17.022Z,-1.47
2022-12-09T06:05:44.275Z,-1.45
2022-12-09T06:08:11.365Z,-1.39
2022-12-09T06:10:41.313Z,-1.41
2022-12-09T06:13:08.790Z,-1.37
2022-12-09T06:15:36.027Z,-1.33
2022-12-09T06:18:05.997Z,-1.36
2022-12-09T06:21:05.526Z,-1.35
2022-12-09T06:23:37.919Z,-1.33
2022-12-09T06:26:19.744Z,-1.27
2022-12-09T06:28:47.111Z,-1.27
2022-12-09T06:31:43.634Z,-1.29
2022-12-09T06:34:18.778Z,-1.26
2022-12-09T06:36:45.752Z,-1.27
2022-12-09T06:39:12.641Z,-1.26
2022-12-09T06:41:50.365Z,-1.27
2022-12-09T06:44:23.583Z,-1.29
2022-12-09T06:46:51.387Z,-1.28
2022-12-09T06:49:41.162Z,-1.25
2022-12-09T06:55:13.734Z,-1.23
2022-12-09T06:57:41.323Z,-1.25
2022-12-09T07:00:09.116Z,-1.21
2022-12-09T07:02:37.332Z,-1.19
2022-12-09T07:05:11.468Z,-1.21
2022-12-09T07:07:45.135Z,-1.22
2022-12-09T07:10:12.980Z,-1.25
2022-12-09T07:12:40.156Z,-1.24
2022-12-09T07:15:07.648Z,-1.21
2022-12-09T07:17:37.031Z,-1.16
2022-12-09T07:20:08.586Z,-1.12
2022-12-09T07:22:42.629Z,-1.11
2022-12-09T07:25:11.465Z,-1.00
2022-12-09T07:27:44.771Z,-0.99
2022-12-09T07:30:17.108Z,-1.04
2022-12-09T07:32:44.410Z,-1.03
2022-12-09T07:35:20.975Z,-1.01
2022-12-09T07:38:08.062Z,-0.99
2022-12-09T07:40:43.044Z,-0.94
2022-12-09T07:43:19.851Z,-0.93
2022-12-09T07:45:46.647Z,-0.92
2022-12-09T07:48:13.655Z,-0.92
2022-12-09T07:50:40.753Z,-0.89
2022-12-09T07:53:07.501Z,-0.89
2022-12-09T07:55:34.758Z,-0.87
2022-12-09T07:58:01.768Z,-0.87
2022-12-09T08:00:28.774Z,-0.86
2022-12-09T08:02:55.591Z,-0.83
2022-12-09T08:05:22.818Z,-0.83
2022-12-09T08:07:49.667Z,-0.77
2022-12-09T08:10:17.257Z,-0.74
2022-12-09T08:12:45.568Z,-0.73
2022-12-09T08:15:13.166Z,-0.67
2022-12-09T08:17:40.517Z,-0.61
2022-12-09T08:20:08.428Z,-0.61
2022-12-09T08:22:35.653Z,-0.63
2022-12-09T08:25:02.809Z,-0.63
2022-12-09T08:27:30.252Z,-0.62
2022-12-09T08:29:57.070Z,-0.62
2022-12-09T08:32:24.113Z,-0.60
2022-12-09T08:34:51.035Z,-0.58
2022-12-09T08:37:18.170Z,-0.55
2022-12-09T08:39:44.937Z,-0.47
2022-12-09T08:42:12.163Z,-0.47
2022-12-09T08:44:40.047Z,-0.44
2022-12-09T08:47:06.838Z,-0.44
2022-12-09T08:49:33.980Z,-0.44
2022-12-09T08:52:01.184Z,-0.43
2022-12-09T08:54:28.790Z,-0.43
2022-12-09T08:56:56.430Z,-0.31
2022-12-09T08:59:24.514Z,-0.29
2022-12-09T09:01:52.582Z,-0.22
2022-12-09T09:04:21.850Z,-0.18
2022-12-09T09:06:50.702Z,-0.04
2022-12-09T09:09:20.394Z,-0.07
2022-12-09T09:11:47.406Z,0.04
2022-12-09T09:14:15.042Z,0.13
2022-12-09T09:16:44.275Z,0.08
2022-12-09T09:19:17.578Z,0.04
2022-12-09T09:21:45.037Z,0.04
2022-12-09T09:24:14.940Z,0.06
2022-12-09T09:26:43.504Z,0.08
2022-12-09T09:29:13.026Z,0.09
2022-12-09T09:31:40.981Z,0.13
2022-12-09T09:34:08.506Z,0.10
2022-12-09T09:36:35.612Z,0.14
2022-12-09T09:39:03.077Z,0.20
2022-12-09T09:41:59.602Z,0.23
2022-12-09T09:44:44.040Z,0.25
2022-12-09T09:47:17.934Z,0.24
2022-12-09T09:49:46.198Z,0.26
2022-12-09T09:52:26.041Z,0.27
2022-12-09T09:55:02.091Z,0.29
2022-12-09T09:57:51.857Z,0.31
2022-12-09T10:00:27.127Z,0.33
2022-12-09T10:03:07.014Z,0.32
2022-12-09T10:05:53.016Z,0.39
2022-12-09T10:08:40.069Z,0.42
2022-12-09T10:11:25.904Z,0.44
2022-12-09T10:14:20.285Z,0.49
2022-12-09T10:17:04.762Z,0.46
2022-12-09T10:19:37.763Z,0.52
2022-12-09T10:22:34.514Z,0.52
2022-12-09T10:25:14.941Z,0.54
2022-12-09T10:27:50.586Z,0.56
2022-12-09T10:30:19.882Z,0.60
2022-12-09T10:32:47.596Z,0.60
2022-12-09T10:35:18.035Z,0.59
2022-12-09T10:37:46.608Z,0.62
2022-12-09T10:40:30.301Z,0.65
2022-12-09T10:43:14.656Z,0.68
2022-12-09T10:48:57.973Z,0.77
2022-12-09T10:51:30.183Z,0.83
2022-12-09T10:54:07.003Z,0.86
2022-12-09T10:56:37.848Z,0.91
2022-12-09T10:59:23.244Z,1.10
2022-12-09T11:01:52.983Z,1.18
2022-12-09T11:04:23.056Z,1.10
2022-12-09T11:06:59.493Z,1.08
2022-12-09T11:09:32.630Z,1.06
2022-12-09T11:12:02.282Z,1.09
2022-12-09T11:14:45.426Z,1.06
2022-12-09T11:17:20.151Z,1.04
2022-12-09T11:19:52.627Z,1.03
2022-12-09T11:22:21.401Z,1.02
2022-12-09T11:24:49.963Z,1.03
2022-12-09T11:27:34.641Z,1.07
2022-12-09T11:30:12.476Z,1.20
2022-12-09T11:33:01.138Z,1.29
2022-12-09T11:35:33.240Z,1.12
2022-12-09T11:38:04.629Z,1.10
2022-12-09T11:40:32.738Z,1.09
2022-12-09T11:42:59.695Z,1.05
2022-12-09T11:45:32.149Z,1.02
2022-12-09T11:48:27.602Z,0.99
2022-12-09T11:50:56.017Z,1.02
2022-12-09T11:53:22.625Z,1.02
2022-12-09T11:55:59.669Z,1.03
2022-12-09T11:58:33.533Z,1.07
2022-12-09T12:01:05.372Z,1.11
2022-12-09T12:03:39.802Z,1.22
2022-12-09T12:06:18.305Z,1.26
2022-12-09T12:08:52.355Z,1.24
2022-12-09T12:11:25.557Z,1.29
2022-12-09T12:14:01.595Z,1.39
2022-12-09T12:16:51.566Z,1.37
2022-12-09T12:19:22.818Z,1.39
2022-12-09T12:22:19.966Z,1.39
2022-12-09T12:25:18.073Z,1.40
2022-12-09T12:28:00.544Z,1.35
2022-12-09T12:30:45.408Z,1.31
2022-12-09T12:34:00.561Z,1.28
2022-12-09T12:36:53.581Z,1.29
2022-12-09T12:39:51.915Z,1.26
2022-12-09T12:43:11.448Z,1.22
2022-12-09T12:46:05.066Z,1.27
2022-12-09T12:48:56.298Z,1.31
2022-12-09T12:51:29.078Z,1.31
2022-12-09T12:54:16.130Z,1.20
2022-12-09T12:56:54.206Z,1.12
2022-12-09T12:59:26.328Z,1.04
2022-12-09T13:02:00.983Z,1.05
2022-12-09T13:04:44.570Z,0.90
2022-12-09T13:07:36.882Z,0.81
2022-12-09T13:10:16.009Z,0.92
2022-12-09T13:13:01.164Z,0.84
2022-12-09T13:15:33.643Z,0.90
2022-12-09T13:18:19.462Z,0.80
2022-12-09T13:20:50.654Z,0.62
2022-12-09T13:23:42.304Z,0.52
2022-12-09T13:26:29.876Z,0.54
2022-12-09T13:29:38.017Z,0.56
2022-12-09T13:32:32.531Z,0.56
2022-12-09T13:35:13.104Z,0.55
2022-12-09T13:38:07.905Z,0.54
2022-12-09T13:40:38.853Z,0.54
2022-12-09T13:43:12.268Z,0.53
2022-12-09T13:46:04.173Z,0.52
2022-12-09T13:48:30.827Z,0.51
2022-12-09T13:53:58.447Z,0.48
2022-12-09T13:56:37.078Z,0.45
2022-12-09T13:59:46.251Z,0.44
2022-12-09T14:02:34.550Z,0.41
2022-12-09T14:05:21.071Z,0.33
2022-12-09T14:07:54.214Z,0.33
2022-12-09T14:10:53.422Z,0.37
2022-12-09T14:13:31.192Z,0.41
2022-12-09T14:16:10.269Z,0.39
2022-12-09T14:18:41.967Z,0.37
2022-12-09T14:21:19.895Z,0.39
2022-12-09T14:24:27.201Z,0.37
2022-12-09T14:27:20.746Z,0.38
2022-12-09T14:29:51.006Z,0.36
2022-12-09T14:32:37.894Z,0.36
2022-12-09T14:35:12.452Z,0.32
2022-12-09T14:38:01.476Z,0.26
2022-12-09T14:41:08.953Z,0.23
2022-12-09T14:44:03.601Z,0.27
2022-12-09T14:46:34.093Z,0.25
2022-12-09T14:49:17.861Z,0.24
2022-12-09T14:52:01.560Z,0.26
2022-12-09T14:54:37.444Z,0.28
2022-12-09T14:57:16.009Z,0.26
2022-12-09T14:59:50.295Z,0.26
2022-12-09T15:03:22.976Z,0.25
2022-12-09T15:05:38.595Z,0.21
2022-12-09T15:08:10.925Z,0.20
2022-12-09T15:10:46.089Z,0.17
2022-12-09T15:13:19.864Z,0.10
2022-12-09T15:15:46.760Z,0.14
2022-12-09T15:18:20.038Z,0.13
2022-12-09T15:20:58.528Z,0.13
2022-12-09T15:24:01.256Z,0.11
2022-12-09T15:26:32.782Z,0.18
2022-12-09T15:29:19.118Z,0.19
2022-12-09T15:31:54.889Z,0.16
2022-12-09T15:34:27.338Z,0.29
2022-12-09T15:37:18.155Z,0.23
2022-12-09T15:39:59.968Z,0.21
2022-12-09T15:42:29.602Z,0.22
2022-12-09T15:45:01.462Z,0.23
2022-12-09T15:47:58.677Z,0.42
2022-12-09T15:50:30.555Z,0.46
2022-12-09T15:53:25.328Z,0.25
2022-12-09T15:55:58.818Z,0.21
2022-12-09T15:58:34.219Z,0.18
2022-12-09T16:01:02.694Z,0.22
2022-12-09T16:03:33.207Z,0.21
2022-12-09T16:06:02.514Z,0.25
2022-12-09T16:08:35.364Z,0.23
2022-12-09T16:11:02.374Z,0.21
2022-12-09T16:13:30.225Z,0.20
2022-12-09T16:15:58.818Z,0.20
2022-12-09T16:18:31.182Z,0.20
2022-12-09T16:21:12.955Z,0.20
2022-12-09T16:23:39.920Z,0.23
2022-12-09T16:26:07.759Z,0.23
2022-12-09T16:28:35.051Z,0.25
2022-12-09T16:31:15.441Z,0.25
2022-12-09T16:33:48.030Z,0.24
2022-12-09T16:36:19.363Z,0.24
2022-12-09T16:39:06.900Z,0.25
2022-12-09T16:41:49.711Z,0.30
2022-12-09T16:44:33.805Z,0.27
2022-12-09T16:47:19.451Z,0.27
2022-12-09T16:49:47.719Z,0.24
2022-12-09T16:52:18.427Z,0.20
2022-12-09T16:54:47.096Z,0.22
2022-12-09T16:57:17.578Z,0.20
2022-12-09T16:59:45.536Z,0.18
2022-12-09T17:02:32.999Z,0.21
2022-12-09T17:05:00.632Z,0.25
2022-12-09T17:07:27.633Z,0.23
2022-12-09T17:09:54.395Z,0.23
2022-12-09T17:12:21.099Z,0.23
2022-12-09T17:14:47.916Z,0.22
2022-12-09T17:17:14.637Z,0.23
2022-12-09T17:19:42.357Z,0.19
2022-12-09T17:22:11.743Z,0.35
2022-12-09T17:24:39.845Z,0.23
2022-12-09T17:27:07.641Z,0.26
2022-12-09T17:29:34.291Z,0.42
2022-12-09T17:32:04.947Z,0.24
2022-12-09T17:34:46.337Z,0.16
2022-12-09T17:37:21.017Z,0.14
2022-12-09T17:40:11.035Z,0.25
2022-12-09T17:42:37.827Z,0.15
2022-12-09T17:45:18.898Z,0.09
2022-12-09T17:47:45.621Z,0.15
2022-12-09T17:50:22.563Z,0.28
2022-12-09T17:52:49.253Z,0.40
2022-12-09T17:55:16.043Z,0.21
2022-12-09T17:57:42.692Z,0.13
2022-12-09T18:00:10.958Z,0.07
2022-12-09T18:02:38.171Z,0.07
2022-12-09T18:05:05.577Z,0.11
2022-12-09T18:07:32.357Z,0.15
2022-12-09T18:09:59.014Z,0.24
2022-12-09T18:12:25.712Z,0.14
2022-12-09T18:14:52.445Z,0.13
2022-12-09T18:17:19.153Z,0.11
2022-12-09T18:19:45.916Z,0.15
2022-12-09T18:22:12.633Z,0.24
2022-12-09T18:24:39.297Z,0.17
2022-12-09T18:27:06.078Z,0.14
2022-12-09T18:29:32.970Z,0.13
2022-12-09T18:31:59.870Z,0.20
2022-12-09T18:34:28.300Z,0.13
2022-12-09T18:36:55.183Z,0.24
2022-12-09T18:39:22.304Z,0.22
2022-12-09T18:41:49.190Z,0.28
2022-12-09T18:44:16.195Z,0.51
2022-12-09T18:46:46.551Z,0.45
2022-12-09T18:49:16.560Z,0.38
2022-12-09T18:51:45.190Z,0.43
2022-12-09T18:54:18.178Z,0.30
2022-12-09T18:56:48.118Z,0.36
2022-12-09T18:59:14.759Z,0.37
2022-12-09T19:01:44.688Z,0.31
2022-12-09T19:04:14.881Z,0.11
2022-12-09T19:06:44.364Z,0.09
2022-12-09T19:09:18.495Z,0.13
2022-12-09T19:11:46.437Z,0.02
2022-12-09T19:14:14.556Z,-0.01
2022-12-09T19:16:42.155Z,-0.04
2022-12-09T19:19:11.046Z,-0.05
2022-12-09T19:21:38.628Z,-0.03
2022-12-09T19:24:05.887Z,0.01
2022-12-09T19:26:34.550Z,0.02
2022-12-09T19:29:04.942Z,0.06
2022-12-09T19:31:36.682Z,0.07
2022-12-09T19:34:13.141Z,0.04
2022-12-09T19:36:39.983Z,0.05
2022-12-09T19:39:08.372Z,0.09
2022-12-09T19:41:35.891Z,0.14
2022-12-09T19:44:04.140Z,0.04
2022-12-09T19:46:31.346Z,0.02
2022-12-09T19:48:58.724Z,0.10
2022-12-09T19:51:27.111Z,0.11
2022-12-09T19:53:55.537Z,0.06
2022-12-09T19:56:22.603Z,0.08
2022-12-09T19:58:49.837Z,0.10
2022-12-09T20:01:25.037Z,0.20
2022-12-09T20:03:56.964Z,0.20
2022-12-09T20:06:24.351Z,0.14
2022-12-09T20:08:51.061Z,0.16
2022-12-09T20:11:20.704Z,0.25
2022-12-09T20:13:47.870Z,0.23
2022-12-09T20:16:18.252Z,0.24
2022-12-09T20:18:48.713Z,0.29
2022-12-09T20:21:17.774Z,0.09
2022-12-09T20:23:45.771Z,0.14
2022-12-09T20:26:15.639Z,0.18
2022-12-09T20:28:44.388Z,0.19
2022-12-09T20:31:14.179Z,0.23
2022-12-09T20:33:41.711Z,0.23
2022-12-09T20:36:12.874Z,0.30
2022-12-09T20:38:40.126Z,0.16
2022-12-09T20:41:10.014Z,0.26
2022-12-09T20:43:40.855Z,0.20
2022-12-09T20:46:11.865Z,0.25
2022-12-09T20:48:39.709Z,0.27
2022-12-09T20:51:08.718Z,0.15
2022-12-09T20:53:36.606Z,-0.01
2022-12-09T20:56:04.549Z,-0.02
2022-12-09T20:58:31.631Z,0.02
2022-12-09T21:01:05.553Z,0.01
2022-12-09T21:03:32.553Z,0.17
2022-12-09T21:05:59.521Z,0.22
2022-12-09T21:08:31.287Z,0.12
2022-12-09T21:11:07.488Z,0.02
2022-12-09T21:13:37.985Z,0.08
2022-12-09T21:16:07.800Z,0.10
2022-12-09T21:18:36.511Z,0.08
2022-12-09T21:21:04.761Z,0.03
2022-12-09T21:23:34.369Z,0.02
2022-12-09T21:26:05.582Z,-0.01
2022-12-09T21:28:32.787Z,0.10
2022-12-09T21:31:05.744Z,-0.01
2022-12-09T21:33:32.476Z,0.10
2022-12-09T21:35:59.168Z,0.11
2022-12-09T21:38:25.834Z,0.02
2022-12-09T21:40:52.651Z,0.10
2022-12-09T21:43:19.370Z,0.10
2022-12-09T21:45:46.072Z,-0.02
2022-12-09T21:48:12.843Z,0.13
2022-12-09T21:50:40.110Z,0.07
2022-12-09T21:53:07.008Z,0.07
2022-12-09T21:55:35.941Z,0.01
2022-12-09T21:58:02.613Z,-0.08
2022-12-09T22:00:29.769Z,-0.04
2022-12-09T22:02:56.381Z,0.00
2022-12-09T22:05:23.028Z,0.05
2022-12-09T22:07:50.059Z,0.01
2022-12-09T22:10:16.823Z,0.01
2022-12-09T22:12:43.952Z,0.11
2022-12-09T22:15:11.052Z,0.18
2022-12-09T22:17:38.145Z,0.14
2022-12-09T22:20:48.876Z,0.11
2022-12-09T22:22:54.369Z,0.08
2022-12-09T22:25:21.056Z,0.00
2022-12-09T22:27:47.677Z,-0.11
2022-12-09T22:30:14.416Z,-0.19
2022-12-09T22:32:44.454Z,-0.14
2022-12-09T22:35:14.618Z,-0.08
2022-12-09T22:37:43.836Z,0.10
2022-12-09T22:40:11.372Z,0.23
2022-12-09T22:42:38.118Z,0.13
2022-12-09T22:45:14.843Z,0.10
2022-12-09T22:47:47.908Z,0.01
2022-12-09T22:50:14.611Z,0.02
2022-12-09T22:52:41.263Z,-0.01
2022-12-09T22:55:12.752Z,0.04
2022-12-09T22:57:39.581Z,0.06
2022-12-09T23:00:20.280Z,0.05
2022-12-09T23:02:48.237Z,0.05
2022-12-09T23:05:15.431Z,0.07
2022-12-09T23:07:43.305Z,0.05
2022-12-09T23:10:17.391Z,-0.11
2022-12-09T23:12:44.063Z,0.01
2022-12-09T23:15:11.015Z,-0.02
2022-12-09T23:17:43.947Z,0.04
2022-12-09T23:20:17.287Z,-0.04
2022-12-09T23:22:45.612Z,0.01
2022-12-09T23:25:12.267Z,-0.03
2022-12-09T23:27:48.188Z,-0.05
2022-12-09T23:30:14.824Z,-0.01
2022-12-09T23:32:41.576Z,0.03
2022-12-09T23:35:18.093Z,0.08
2022-12-09T23:38:14.705Z,-0.02
2022-12-09T23:40:50.451Z,-0.02
2022-12-09T23:43:17.583Z,-0.04
2022-12-09T23:45:45.848Z,-0.09
2022-12-09T23:48:12.585Z,-0.03
2022-12-09T23:50:44.781Z,-0.10
2022-12-09T23:53:13.707Z,0.00
2022-12-09T23:55:42.980Z,0.01
2022-12-09T23:58:09.922Z,-0.02
